createdAt,value
2018-09-15T00:00:12.870Z,66.40
2018-09-15T00:00:44.873Z,65.70
2018-09-15T00:01:16.844Z,65.70
2018-09-15T00:01:48.633Z,65.90
2018-09-15T00:02:20.566Z,65.70
2018-09-15T00:02:52.614Z,65.70
2018-09-15T00:03:24.455Z,65.70
2018-09-15T00:03:56.320Z,65.70
2018-09-15T00:04:28.209Z,65.70
2018-09-15T00:05:00.067Z,65.80
2018-09-15T00:05:31.973Z,65.80
2018-09-15T00:06:03.971Z,65.70
2018-09-15T00:06:35.939Z,65.70
2018-09-15T00:07:07.775Z,65.80
2018-09-15T00:07:39.615Z,65.70
2018-09-15T00:08:11.419Z,65.70
2018-09-15T00:08:43.337Z,65.80
2018-09-15T00:09:15.166Z,65.70
2018-09-15T00:09:47.337Z,65.80
2018-09-15T00:10:19.204Z,65.70
2018-09-15T00:10:51.006Z,65.70
2018-09-15T00:11:23.189Z,65.70
2018-09-15T00:11:55.414Z,65.70
2018-09-15T00:12:27.263Z,65.60
2018-09-15T00:12:59.224Z,65.90
2018-09-15T00:13:31.037Z,65.70
2018-09-15T00:14:02.901Z,65.90
2018-09-15T00:14:35.194Z,65.60
2018-09-15T00:15:07.013Z,65.70
2018-09-15T00:15:38.803Z,65.60
2018-09-15T00:16:10.898Z,65.70
2018-09-15T00:16:42.975Z,66.30
2018-09-15T00:17:14.977Z,65.60
2018-09-15T00:17:47.028Z,65.50
2018-09-15T00:18:18.845Z,65.50
2018-09-15T00:18:50.655Z,65.50
2018-09-15T00:19:22.475Z,65.60
2018-09-15T00:19:54.324Z,65.60
2018-09-15T00:20:26.173Z,65.50
2018-09-15T00:20:57.959Z,65.60
2018-09-15T00:21:29.832Z,65.50
2018-09-15T00:22:01.727Z,65.40
2018-09-15T00:22:33.567Z,65.40
2018-09-15T00:23:05.433Z,64.90
2018-09-15T00:23:37.453Z,65.50
2018-09-15T00:24:09.253Z,65.40
2018-09-15T00:24:41.101Z,65.40
2018-09-15T00:25:13.162Z,65.40
2018-09-15T00:25:45.003Z,65.40
2018-09-15T00:26:16.841Z,65.50
2018-09-15T00:26:48.896Z,65.40
2018-09-15T00:27:20.821Z,65.40
2018-09-15T00:27:52.692Z,65.40
2018-09-15T00:28:24.553Z,65.40
2018-09-15T00:28:56.456Z,65.50
2018-09-15T00:29:28.336Z,65.40
2018-09-15T00:30:00.191Z,65.30
2018-09-15T00:30:32.330Z,65.40
2018-09-15T00:31:04.177Z,65.40
2018-09-15T00:31:35.961Z,65.50
2018-09-15T00:32:07.888Z,65.40
2018-09-15T00:32:39.728Z,65.40
2018-09-15T00:33:11.681Z,65.50
2018-09-15T00:33:43.675Z,65.40
2018-09-15T00:34:15.677Z,65.40
2018-09-15T00:34:47.590Z,65.50
2018-09-15T00:35:19.446Z,65.30
2018-09-15T00:35:51.249Z,65.40
2018-09-15T00:36:23.112Z,65.40
2018-09-15T00:36:54.909Z,65.30
2018-09-15T00:37:26.710Z,65.40
2018-09-15T00:37:58.520Z,65.30
2018-09-15T00:38:30.340Z,65.30
2018-09-15T00:39:02.338Z,66.00
2018-09-15T00:39:34.281Z,65.30
2018-09-15T00:40:06.295Z,65.30
2018-09-15T00:40:38.049Z,65.20
2018-09-15T00:41:09.892Z,65.20
2018-09-15T00:41:41.881Z,65.10
2018-09-15T00:42:13.860Z,65.20
2018-09-15T00:42:45.733Z,65.10
2018-09-15T00:43:17.518Z,65.10
2018-09-15T00:43:49.364Z,65.10
2018-09-15T00:44:21.364Z,65.20
2018-09-15T00:44:53.333Z,65.20
2018-09-15T00:45:25.238Z,65.20
2018-09-15T00:45:57.062Z,65.20
2018-09-15T00:46:28.890Z,65.20
2018-09-15T00:47:00.719Z,65.20
2018-09-15T00:47:32.512Z,65.10
2018-09-15T00:48:04.323Z,65.20
2018-09-15T00:48:36.135Z,65.20
2018-09-15T00:49:08.150Z,65.10
2018-09-15T00:49:39.933Z,65.20
2018-09-15T00:50:11.750Z,65.20
2018-09-15T00:50:43.633Z,65.10
2018-09-15T00:51:15.782Z,65.20
2018-09-15T00:51:47.582Z,65.20
2018-09-15T00:52:19.424Z,65.20
2018-09-15T00:52:51.454Z,65.20
2018-09-15T00:53:23.293Z,65.80
2018-09-15T00:53:55.142Z,65.20
2018-09-15T00:54:27.164Z,65.30
2018-09-15T00:54:58.981Z,65.30
2018-09-15T00:55:31.032Z,65.30
2018-09-15T00:56:02.872Z,65.30
2018-09-15T00:56:34.751Z,65.30
2018-09-15T00:57:06.556Z,65.20
2018-09-15T00:57:38.402Z,65.30
2018-09-15T00:58:10.333Z,65.20
2018-09-15T00:58:42.252Z,65.30
2018-09-15T00:59:14.116Z,65.30
2018-09-15T00:59:46.054Z,66.00
2018-09-15T01:00:18.113Z,65.30
2018-09-15T01:00:49.953Z,65.30
2018-09-15T01:01:21.776Z,65.30
2018-09-15T01:01:53.661Z,65.30
2018-09-15T01:02:25.504Z,65.40
2018-09-15T01:02:57.452Z,65.40
2018-09-15T01:03:29.249Z,65.40
2018-09-15T01:04:01.273Z,65.30
2018-09-15T01:04:33.338Z,65.40
2018-09-15T01:05:05.180Z,66.00
2018-09-15T01:05:37.021Z,66.10
2018-09-15T01:06:08.819Z,65.40
2018-09-15T01:06:40.667Z,65.30
2018-09-15T01:07:12.847Z,65.30
2018-09-15T01:07:44.735Z,65.30
2018-09-15T01:08:16.568Z,65.30
2018-09-15T01:08:48.422Z,65.40
2018-09-15T01:09:20.260Z,65.30
2018-09-15T01:09:52.264Z,65.30
2018-09-15T01:10:24.168Z,65.30
2018-09-15T01:10:56.046Z,65.40
2018-09-15T01:11:28.134Z,65.30
2018-09-15T01:12:00.037Z,65.40
2018-09-15T01:12:32.002Z,65.30
2018-09-15T01:13:04.175Z,65.50
2018-09-15T01:13:36.016Z,65.30
2018-09-15T01:14:07.945Z,65.30
2018-09-15T01:14:39.931Z,65.30
2018-09-15T01:15:11.751Z,65.20
2018-09-15T01:15:43.559Z,65.00
2018-09-15T01:16:15.412Z,65.30
2018-09-15T01:16:47.239Z,65.20
2018-09-15T01:17:19.123Z,65.20
2018-09-15T01:17:50.966Z,65.20
2018-09-15T01:18:22.880Z,65.30
2018-09-15T01:18:54.719Z,65.20
2018-09-15T01:19:26.612Z,65.30
2018-09-15T01:19:58.455Z,65.30
2018-09-15T01:20:30.487Z,65.70
2018-09-15T01:21:02.612Z,65.30
2018-09-15T01:21:34.417Z,65.30
2018-09-15T01:22:06.396Z,65.30
2018-09-15T01:22:38.418Z,65.30
2018-09-15T01:23:10.325Z,65.30
2018-09-15T01:23:42.197Z,65.40
2018-09-15T01:24:14.152Z,65.30
2018-09-15T01:24:46.097Z,65.10
2018-09-15T01:25:18.036Z,65.20
2018-09-15T01:25:49.990Z,65.20
2018-09-15T01:26:21.986Z,65.30
2018-09-15T01:26:53.993Z,65.30
2018-09-15T01:27:25.846Z,65.30
2018-09-15T01:27:57.805Z,65.40
2018-09-15T01:28:29.621Z,65.40
2018-09-15T01:29:01.459Z,65.40
2018-09-15T01:29:33.402Z,65.40
2018-09-15T01:30:05.308Z,65.40
2018-09-15T01:30:37.126Z,65.40
2018-09-15T01:31:09.107Z,65.40
2018-09-15T01:31:40.998Z,65.50
2018-09-15T01:32:12.917Z,65.50
2018-09-15T01:32:44.761Z,65.50
2018-09-15T01:33:16.553Z,65.40
2018-09-15T01:33:48.345Z,65.40
2018-09-15T01:34:20.197Z,65.30
2018-09-15T01:34:52.245Z,65.50
2018-09-15T01:35:24.089Z,65.40
2018-09-15T01:35:55.882Z,65.50
2018-09-15T01:36:27.757Z,65.30
2018-09-15T01:36:59.939Z,65.40
2018-09-15T01:37:31.779Z,65.60
2018-09-15T01:38:03.737Z,65.40
2018-09-15T01:38:35.590Z,65.50
2018-09-15T01:39:07.447Z,65.60
2018-09-15T01:39:39.379Z,65.40
2018-09-15T01:40:11.178Z,65.30
2018-09-15T01:40:43.047Z,65.50
2018-09-15T01:41:15.028Z,65.30
2018-09-15T01:41:46.835Z,65.40
2018-09-15T01:42:18.759Z,65.50
2018-09-15T01:42:50.763Z,65.20
2018-09-15T01:43:22.538Z,65.20
2018-09-15T01:43:54.547Z,65.40
2018-09-15T01:44:26.499Z,65.40
2018-09-15T01:44:58.269Z,65.30
2018-09-15T01:45:30.238Z,65.20
2018-09-15T01:46:02.049Z,65.30
2018-09-15T01:46:34.121Z,65.30
2018-09-15T01:47:05.966Z,65.00
2018-09-15T01:47:37.841Z,65.10
2018-09-15T01:48:09.676Z,65.20
2018-09-15T01:48:41.503Z,65.00
2018-09-15T01:49:13.368Z,65.20
2018-09-15T01:49:45.381Z,65.00
2018-09-15T01:50:17.285Z,65.90
2018-09-15T01:50:49.242Z,65.10
2018-09-15T01:51:21.096Z,64.90
2018-09-15T01:51:52.919Z,65.80
2018-09-15T01:52:24.802Z,65.20
2018-09-15T01:52:56.688Z,65.20
2018-09-15T01:53:28.522Z,65.30
2018-09-15T01:54:00.469Z,65.20
2018-09-15T01:54:32.565Z,65.30
2018-09-15T01:55:04.489Z,65.20
2018-09-15T01:55:36.500Z,65.30
2018-09-15T01:56:08.449Z,65.30
2018-09-15T01:56:40.373Z,65.40
2018-09-15T01:57:12.201Z,65.20
2018-09-15T01:57:44.200Z,65.20
2018-09-15T01:58:16.489Z,65.30
2018-09-15T01:58:48.380Z,65.00
2018-09-15T01:59:20.228Z,65.20
2018-09-15T01:59:52.132Z,65.30
2018-09-15T02:00:23.949Z,65.20
2018-09-15T02:00:55.841Z,65.10
2018-09-15T02:01:27.759Z,65.30
2018-09-15T02:01:59.754Z,65.20
2018-09-15T02:02:31.719Z,65.40
2018-09-15T02:03:03.640Z,65.40
2018-09-15T02:03:35.515Z,65.20
2018-09-15T02:04:07.708Z,65.30
2018-09-15T02:04:39.530Z,66.00
2018-09-15T02:05:11.319Z,65.30
2018-09-15T02:05:43.119Z,65.40
2018-09-15T02:06:14.949Z,65.30
2018-09-15T02:06:46.773Z,65.30
2018-09-15T02:07:18.662Z,65.50
2018-09-15T02:07:50.611Z,65.30
2018-09-15T02:08:22.599Z,66.10
2018-09-15T02:08:54.521Z,65.30
2018-09-15T02:09:26.427Z,65.30
2018-09-15T02:09:58.314Z,65.00
2018-09-15T02:10:30.133Z,65.20
2018-09-15T02:11:02.030Z,65.30
2018-09-15T02:11:33.860Z,65.30
2018-09-15T02:12:05.949Z,65.30
2018-09-15T02:12:37.760Z,65.30
2018-09-15T02:13:09.616Z,65.30
2018-09-15T02:13:41.451Z,65.40
2018-09-15T02:14:13.631Z,65.40
2018-09-15T02:14:45.521Z,65.40
2018-09-15T02:15:17.428Z,66.00
2018-09-15T02:15:49.471Z,65.30
2018-09-15T02:16:21.390Z,65.00
2018-09-15T02:16:53.376Z,65.40
2018-09-15T02:17:25.259Z,65.70
2018-09-15T02:17:57.264Z,65.40
2018-09-15T02:18:29.108Z,65.50
2018-09-15T02:19:01.120Z,65.30
2018-09-15T02:19:33.030Z,65.40
2018-09-15T02:20:04.859Z,65.40
2018-09-15T02:20:36.670Z,65.50
2018-09-15T02:21:08.526Z,65.30
2018-09-15T02:21:40.341Z,65.30
2018-09-15T02:22:12.391Z,65.20
2018-09-15T02:22:44.296Z,65.50
2018-09-15T02:23:16.246Z,65.40
2018-09-15T02:23:48.045Z,65.40
2018-09-15T02:24:19.921Z,65.40
2018-09-15T02:24:51.890Z,65.40
2018-09-15T02:25:23.903Z,65.40
2018-09-15T02:25:55.771Z,65.40
2018-09-15T02:26:27.830Z,65.40
2018-09-15T02:26:59.741Z,65.30
2018-09-15T02:27:31.514Z,65.30
2018-09-15T02:28:03.571Z,65.50
2018-09-15T02:28:35.639Z,65.40
2018-09-15T02:29:07.751Z,65.90
2018-09-15T02:29:39.722Z,65.30
2018-09-15T02:30:11.524Z,65.40
2018-09-15T02:30:43.442Z,65.40
2018-09-15T02:31:15.612Z,65.40
2018-09-15T02:31:47.532Z,65.50
2018-09-15T02:32:19.479Z,65.50
2018-09-15T02:32:51.344Z,65.50
2018-09-15T02:33:23.274Z,65.40
2018-09-15T02:33:55.313Z,65.50
2018-09-15T02:34:27.252Z,65.30
2018-09-15T02:34:59.241Z,65.40
2018-09-15T02:35:31.050Z,65.30
2018-09-15T02:36:03.130Z,65.50
2018-09-15T02:36:35.030Z,65.40
2018-09-15T02:37:07.140Z,65.40
2018-09-15T02:37:39.161Z,65.40
2018-09-15T02:38:10.994Z,66.20
2018-09-15T02:38:42.825Z,65.50
2018-09-15T02:39:14.891Z,65.50
2018-09-15T02:39:46.674Z,65.30
2018-09-15T02:40:18.541Z,65.40
2018-09-15T02:40:50.367Z,65.40
2018-09-15T02:41:22.228Z,65.60
2018-09-15T02:41:54.401Z,65.50
2018-09-15T02:42:26.309Z,66.00
2018-09-15T02:42:58.221Z,65.40
2018-09-15T02:43:30.092Z,65.40
2018-09-15T02:44:01.972Z,65.60
2018-09-15T02:44:33.831Z,65.30
2018-09-15T02:45:05.674Z,65.50
2018-09-15T02:45:37.494Z,65.20
2018-09-15T02:46:09.293Z,65.30
2018-09-15T02:46:41.104Z,65.50
2018-09-15T02:47:13.032Z,65.30
2018-09-15T02:47:44.919Z,65.50
2018-09-15T02:48:16.704Z,66.10
2018-09-15T02:48:48.801Z,65.30
2018-09-15T02:49:20.701Z,65.20
2018-09-15T02:49:52.784Z,65.30
2018-09-15T02:50:24.583Z,65.30
2018-09-15T02:50:56.472Z,65.20
2018-09-15T02:51:28.522Z,65.30
2018-09-15T02:52:00.320Z,65.10
2018-09-15T02:52:32.314Z,65.20
2018-09-15T02:53:04.221Z,65.40
2018-09-15T02:53:36.055Z,65.40
2018-09-15T02:54:08.079Z,65.50
2018-09-15T02:54:39.969Z,65.40
2018-09-15T02:55:11.920Z,65.10
2018-09-15T02:55:43.941Z,65.40
2018-09-15T02:56:15.990Z,65.30
2018-09-15T02:56:47.851Z,65.80
2018-09-15T02:57:19.652Z,65.40
2018-09-15T02:57:51.481Z,65.20
2018-09-15T02:58:23.480Z,65.30
2018-09-15T02:58:55.465Z,65.30
2018-09-15T02:59:27.351Z,65.30
2018-09-15T02:59:59.191Z,65.40
2018-09-15T03:00:31.100Z,65.40
2018-09-15T03:01:02.942Z,65.40
2018-09-15T03:01:34.772Z,65.30
2018-09-15T03:02:06.567Z,65.40
2018-09-15T03:02:38.470Z,65.30
2018-09-15T03:03:10.460Z,65.40
2018-09-15T03:03:42.316Z,65.10
2018-09-15T03:04:14.204Z,65.30
2018-09-15T03:04:46.041Z,64.90
2018-09-15T03:05:17.837Z,65.30
2018-09-15T03:05:49.692Z,65.40
2018-09-15T03:06:21.521Z,65.50
2018-09-15T03:06:53.394Z,65.30
2018-09-15T03:07:25.517Z,65.20
2018-09-15T03:07:57.419Z,65.30
2018-09-15T03:08:29.262Z,66.00
2018-09-15T03:09:01.091Z,65.20
2018-09-15T03:09:32.920Z,65.20
2018-09-15T03:10:04.870Z,65.20
2018-09-15T03:10:36.731Z,65.10
2018-09-15T03:11:08.748Z,65.30
2018-09-15T03:11:40.785Z,65.20
2018-09-15T03:12:12.612Z,65.10
2018-09-15T03:12:44.571Z,65.20
2018-09-15T03:13:16.559Z,65.00
2018-09-15T03:13:48.512Z,65.10
2018-09-15T03:14:20.323Z,65.40
2018-09-15T03:14:52.193Z,65.10
2018-09-15T03:15:24.163Z,65.10
2018-09-15T03:15:56.133Z,65.00
2018-09-15T03:16:27.919Z,65.30
2018-09-15T03:16:59.753Z,65.10
2018-09-15T03:17:31.569Z,65.20
2018-09-15T03:18:03.398Z,65.10
2018-09-15T03:18:35.229Z,65.10
2018-09-15T03:19:07.060Z,65.20
2018-09-15T03:19:38.844Z,65.20
2018-09-15T03:20:10.699Z,65.10
2018-09-15T03:20:42.534Z,65.30
2018-09-15T03:21:14.370Z,65.20
2018-09-15T03:21:46.219Z,65.20
2018-09-15T03:22:18.003Z,65.10
2018-09-15T03:22:49.882Z,65.20
2018-09-15T03:23:21.759Z,65.20
2018-09-15T03:23:53.556Z,65.00
2018-09-15T03:24:25.451Z,65.00
2018-09-15T03:24:57.417Z,65.10
2018-09-15T03:25:29.272Z,65.10
2018-09-15T03:26:01.225Z,65.10
2018-09-15T03:26:33.016Z,65.20
2018-09-15T03:27:04.942Z,65.00
2018-09-15T03:27:36.818Z,65.20
2018-09-15T03:28:08.708Z,65.10
2018-09-15T03:28:40.607Z,65.10
2018-09-15T03:29:12.516Z,65.10
2018-09-15T03:29:44.389Z,65.20
2018-09-15T03:30:16.223Z,65.20
2018-09-15T03:30:48.116Z,65.10
2018-09-15T03:31:19.947Z,65.10
2018-09-15T03:31:51.851Z,65.10
2018-09-15T03:32:23.806Z,65.10
2018-09-15T03:32:55.725Z,65.90
2018-09-15T03:33:27.590Z,65.20
2018-09-15T03:33:59.507Z,64.80
2018-09-15T03:34:31.297Z,65.00
2018-09-15T03:35:03.147Z,65.10
2018-09-15T03:35:35.009Z,65.10
2018-09-15T03:36:06.916Z,65.80
2018-09-15T03:36:38.725Z,65.00
2018-09-15T03:37:10.536Z,65.10
2018-09-15T03:37:42.476Z,65.20
2018-09-15T03:38:14.397Z,65.20
2018-09-15T03:38:46.183Z,65.00
2018-09-15T03:39:18.076Z,65.20
2018-09-15T03:39:50.060Z,65.20
2018-09-15T03:40:21.976Z,65.20
2018-09-15T03:40:53.890Z,65.10
2018-09-15T03:41:25.915Z,65.20
2018-09-15T03:41:57.942Z,65.10
2018-09-15T03:42:30.176Z,65.20
2018-09-15T03:43:01.976Z,65.10
2018-09-15T03:43:33.961Z,65.50
2018-09-15T03:44:05.735Z,65.20
2018-09-15T03:44:37.624Z,65.10
2018-09-15T03:45:09.770Z,65.20
2018-09-15T03:45:41.808Z,65.20
2018-09-15T03:46:13.655Z,65.10
2018-09-15T03:46:45.501Z,65.20
2018-09-15T03:47:17.376Z,65.10
2018-09-15T03:47:49.469Z,65.20
2018-09-15T03:48:21.270Z,65.80
2018-09-15T03:48:53.071Z,65.20
2018-09-15T03:49:25.006Z,65.10
2018-09-15T03:49:56.948Z,65.10
2018-09-15T03:50:28.875Z,65.10
2018-09-15T03:51:00.904Z,65.20
2018-09-15T03:51:32.824Z,65.20
2018-09-15T03:52:04.605Z,65.10
2018-09-15T03:52:36.429Z,65.20
2018-09-15T03:53:08.265Z,65.10
2018-09-15T03:53:40.098Z,65.20
2018-09-15T03:54:11.973Z,65.20
2018-09-15T03:54:43.779Z,65.20
2018-09-15T03:55:15.777Z,65.20
2018-09-15T03:55:47.550Z,65.90
2018-09-15T03:56:19.338Z,65.10
2018-09-15T03:56:51.220Z,65.20
2018-09-15T03:57:23.104Z,65.20
2018-09-15T03:57:54.959Z,65.20
2018-09-15T03:58:26.933Z,65.20
2018-09-15T03:58:58.750Z,65.20
2018-09-15T03:59:30.625Z,65.20
2018-09-15T04:00:02.572Z,65.10
2018-09-15T04:00:34.619Z,65.20
2018-09-15T04:01:06.579Z,65.20
2018-09-15T04:01:38.526Z,65.30
2018-09-15T04:02:10.335Z,65.20
2018-09-15T04:02:42.183Z,65.20
2018-09-15T04:03:14.026Z,65.10
2018-09-15T04:03:45.865Z,65.10
2018-09-15T04:04:17.695Z,65.10
2018-09-15T04:04:49.474Z,65.20
2018-09-15T04:05:21.335Z,65.10
2018-09-15T04:05:53.323Z,65.20
2018-09-15T04:06:25.264Z,65.20
2018-09-15T04:06:57.230Z,65.20
2018-09-15T04:07:29.051Z,65.10
2018-09-15T04:08:00.904Z,65.10
2018-09-15T04:08:32.841Z,65.20
2018-09-15T04:09:04.810Z,65.20
2018-09-15T04:09:36.740Z,65.00
2018-09-15T04:10:08.561Z,65.00
2018-09-15T04:10:40.403Z,65.10
2018-09-15T04:11:12.251Z,65.00
2018-09-15T04:11:44.160Z,65.10
2018-09-15T04:12:16.024Z,65.10
2018-09-15T04:12:47.913Z,65.10
2018-09-15T04:13:20.016Z,65.10
2018-09-15T04:13:52.015Z,65.20
2018-09-15T04:14:23.903Z,65.20
2018-09-15T04:14:55.794Z,65.20
2018-09-15T04:15:27.681Z,65.10
2018-09-15T04:15:59.553Z,65.10
2018-09-15T04:16:31.420Z,65.00
2018-09-15T04:17:03.371Z,65.10
2018-09-15T04:17:35.225Z,65.10
2018-09-15T04:18:07.220Z,65.10
2018-09-15T04:18:39.154Z,66.00
2018-09-15T04:19:10.933Z,65.10
2018-09-15T04:19:42.721Z,65.30
2018-09-15T04:20:14.525Z,65.20
2018-09-15T04:20:46.378Z,65.30
2018-09-15T04:21:18.731Z,65.20
2018-09-15T04:21:50.877Z,65.70
2018-09-15T04:22:23.161Z,65.20
2018-09-15T04:22:55.097Z,65.10
2018-09-15T04:23:27.021Z,65.20
2018-09-15T04:23:58.871Z,65.20
2018-09-15T04:24:30.892Z,65.10
2018-09-15T04:25:03.077Z,65.00
2018-09-15T04:25:35.152Z,65.10
2018-09-15T04:26:07.145Z,65.10
2018-09-15T04:26:39.016Z,65.10
2018-09-15T04:27:11.004Z,65.70
2018-09-15T04:27:42.831Z,65.20
2018-09-15T04:28:14.707Z,64.80
2018-09-15T04:28:46.559Z,65.10
2018-09-15T04:29:18.401Z,64.90
2018-09-15T04:29:50.271Z,65.00
2018-09-15T04:30:22.230Z,65.00
2018-09-15T04:30:54.122Z,65.40
2018-09-15T04:31:26.023Z,65.20
2018-09-15T04:31:57.951Z,64.80
2018-09-15T04:32:29.746Z,65.80
2018-09-15T04:33:01.839Z,65.20
2018-09-15T04:33:33.837Z,65.00
2018-09-15T04:34:05.700Z,64.90
2018-09-15T04:34:37.882Z,65.00
2018-09-15T04:35:09.817Z,64.80
2018-09-15T04:35:41.821Z,64.70
2018-09-15T04:36:13.665Z,64.90
2018-09-15T04:36:45.490Z,65.40
2018-09-15T04:37:17.517Z,65.00
2018-09-15T04:37:49.321Z,65.00
2018-09-15T04:38:21.322Z,64.80
2018-09-15T04:38:53.145Z,65.00
2018-09-15T04:39:24.962Z,64.90
2018-09-15T04:39:56.940Z,65.10
2018-09-15T04:40:28.801Z,65.20
2018-09-15T04:41:00.652Z,65.10
2018-09-15T04:41:32.533Z,64.80
2018-09-15T04:42:04.594Z,65.00
2018-09-15T04:42:36.674Z,65.10
2018-09-15T04:43:08.735Z,65.10
2018-09-15T04:43:40.684Z,65.10
2018-09-15T04:44:12.492Z,65.00
2018-09-15T04:44:44.309Z,65.00
2018-09-15T04:45:16.122Z,65.00
2018-09-15T04:45:47.971Z,65.00
2018-09-15T04:46:19.812Z,65.00
2018-09-15T04:46:51.901Z,65.00
2018-09-15T04:47:23.779Z,64.90
2018-09-15T04:47:55.683Z,64.70
2018-09-15T04:48:27.636Z,65.00
2018-09-15T04:48:59.664Z,65.20
2018-09-15T04:49:31.462Z,64.90
2018-09-15T04:50:03.335Z,64.80
2018-09-15T04:50:35.295Z,65.10
2018-09-15T04:51:07.095Z,65.00
2018-09-15T04:51:38.901Z,65.00
2018-09-15T04:52:10.834Z,64.80
2018-09-15T04:52:42.827Z,64.80
2018-09-15T04:53:14.868Z,64.60
2018-09-15T04:53:46.798Z,64.80
2018-09-15T04:54:18.893Z,64.80
2018-09-15T04:54:50.912Z,65.00
2018-09-15T04:55:22.907Z,64.80
2018-09-15T04:55:54.842Z,64.90
2018-09-15T04:56:26.878Z,64.50
2018-09-15T04:56:58.886Z,64.90
2018-09-15T04:57:30.953Z,64.70
2018-09-15T04:58:03.014Z,64.70
2018-09-15T04:58:34.947Z,64.80
2018-09-15T04:59:06.984Z,65.00
2018-09-15T04:59:38.900Z,65.00
2018-09-15T05:00:10.755Z,65.00
2018-09-15T05:00:42.653Z,64.80
2018-09-15T05:01:14.461Z,64.80
2018-09-15T05:01:46.292Z,65.50
2018-09-15T05:02:18.289Z,64.90
2018-09-15T05:02:50.125Z,64.70
2018-09-15T05:03:22.043Z,64.60
2018-09-15T05:03:53.931Z,64.50
2018-09-15T05:04:25.762Z,65.20
2018-09-15T05:04:57.537Z,64.70
2018-09-15T05:05:29.355Z,64.90
2018-09-15T05:06:01.481Z,64.70
2018-09-15T05:06:33.262Z,65.00
2018-09-15T05:07:05.332Z,64.70
2018-09-15T05:07:37.341Z,64.50
2018-09-15T05:08:09.192Z,64.80
2018-09-15T05:08:41.122Z,64.80
2018-09-15T05:09:13.033Z,64.90
2018-09-15T05:09:44.892Z,64.80
2018-09-15T05:10:16.811Z,64.90
2018-09-15T05:10:48.616Z,64.60
2018-09-15T05:11:20.432Z,64.50
2018-09-15T05:11:52.223Z,64.50
2018-09-15T05:12:24.117Z,64.80
2018-09-15T05:12:56.131Z,64.70
2018-09-15T05:13:28.265Z,64.70
2018-09-15T05:14:00.145Z,64.70
2018-09-15T05:14:32.192Z,64.70
2018-09-15T05:15:04.020Z,64.70
2018-09-15T05:15:35.898Z,64.50
2018-09-15T05:16:07.952Z,64.70
2018-09-15T05:16:39.794Z,64.70
2018-09-15T05:17:11.681Z,64.50
2018-09-15T05:17:43.592Z,64.70
2018-09-15T05:18:15.482Z,64.80
2018-09-15T05:18:47.513Z,64.70
2018-09-15T05:19:19.641Z,64.70
2018-09-15T05:19:51.613Z,64.40
2018-09-15T05:20:23.452Z,64.70
2018-09-15T05:20:55.272Z,64.70
2018-09-15T05:21:27.112Z,64.50
2018-09-15T05:21:58.996Z,64.40
2018-09-15T05:22:30.852Z,64.80
2018-09-15T05:23:02.782Z,64.60
2018-09-15T05:23:34.595Z,64.50
2018-09-15T05:24:06.467Z,64.50
2018-09-15T05:24:38.424Z,64.80
2018-09-15T05:25:10.254Z,64.80
2018-09-15T05:25:42.802Z,64.60
2018-09-15T05:26:14.674Z,65.00
2018-09-15T05:26:46.751Z,64.70
2018-09-15T05:27:18.563Z,64.80
2018-09-15T05:27:50.475Z,64.80
2018-09-15T05:28:22.286Z,64.80
2018-09-15T05:28:54.263Z,64.80
2018-09-15T05:29:26.229Z,64.90
2018-09-15T05:29:58.038Z,64.80
2018-09-15T05:30:29.910Z,65.10
2018-09-15T05:31:01.820Z,64.80
2018-09-15T05:31:33.793Z,64.60
2018-09-15T05:32:05.931Z,64.60
2018-09-15T05:32:37.741Z,64.80
2018-09-15T05:33:09.550Z,64.60
2018-09-15T05:33:41.471Z,64.70
2018-09-15T05:34:13.510Z,64.80
2018-09-15T05:34:45.288Z,64.70
2018-09-15T05:35:17.125Z,64.80
2018-09-15T05:35:48.953Z,64.80
2018-09-15T05:36:20.802Z,64.80
2018-09-15T05:36:52.770Z,64.60
2018-09-15T05:37:24.570Z,64.60
2018-09-15T05:37:56.477Z,64.60
2018-09-15T05:38:28.328Z,64.70
2018-09-15T05:39:00.189Z,64.50
2018-09-15T05:39:31.998Z,64.60
2018-09-15T05:40:03.953Z,64.60
2018-09-15T05:40:35.927Z,64.50
2018-09-15T05:41:07.869Z,64.40
2018-09-15T05:41:39.660Z,64.50
2018-09-15T05:42:11.474Z,64.70
2018-09-15T05:42:43.314Z,64.50
2018-09-15T05:43:15.197Z,64.60
2018-09-15T05:43:47.110Z,64.70
2018-09-15T05:44:18.893Z,64.60
2018-09-15T05:44:50.827Z,64.60
2018-09-15T05:45:22.649Z,64.70
2018-09-15T05:45:54.434Z,64.60
2018-09-15T05:46:26.302Z,64.60
2018-09-15T05:46:58.108Z,64.60
2018-09-15T05:47:29.897Z,64.40
2018-09-15T05:48:01.698Z,64.70
2018-09-15T05:48:33.476Z,64.40
2018-09-15T05:49:05.586Z,64.60
2018-09-15T05:49:37.436Z,64.50
2018-09-15T05:50:09.419Z,64.40
2018-09-15T05:50:41.217Z,65.20
2018-09-15T05:51:13.116Z,64.40
2018-09-15T05:51:45.069Z,64.50
2018-09-15T05:52:16.875Z,64.60
2018-09-15T05:52:48.772Z,64.40
2018-09-15T05:53:20.861Z,64.40
2018-09-15T05:53:52.769Z,64.50
2018-09-15T05:54:24.737Z,64.70
2018-09-15T05:54:56.576Z,65.20
2018-09-15T05:55:28.417Z,64.50
2018-09-15T05:56:00.303Z,64.50
2018-09-15T05:56:32.609Z,64.40
2018-09-15T05:57:04.445Z,64.50
2018-09-15T05:57:36.284Z,65.20
2018-09-15T05:58:08.107Z,64.40
2018-09-15T05:58:40.037Z,64.50
2018-09-15T05:59:11.964Z,64.60
2018-09-15T05:59:43.807Z,64.60
2018-09-15T06:00:15.566Z,64.70
2018-09-15T06:00:47.391Z,64.60
2018-09-15T06:01:19.265Z,64.50
2018-09-15T06:01:51.221Z,64.60
2018-09-15T06:02:23.144Z,64.50
2018-09-15T06:02:55.006Z,64.20
2018-09-15T06:03:26.806Z,64.50
2018-09-15T06:03:58.589Z,64.50
2018-09-15T06:04:30.566Z,64.20
2018-09-15T06:05:02.735Z,64.40
2018-09-15T06:05:34.572Z,64.60
2018-09-15T06:06:06.653Z,65.10
2018-09-15T06:06:38.518Z,64.40
2018-09-15T06:07:10.586Z,64.60
2018-09-15T06:07:42.527Z,64.70
2018-09-15T06:08:14.450Z,65.20
2018-09-15T06:08:46.251Z,64.40
2018-09-15T06:09:18.125Z,64.30
2018-09-15T06:09:49.935Z,64.60
2018-09-15T06:10:21.812Z,64.70
2018-09-15T06:10:53.637Z,64.80
2018-09-15T06:11:25.524Z,64.40
2018-09-15T06:11:57.380Z,64.10
2018-09-15T06:12:29.301Z,64.10
2018-09-15T06:13:01.070Z,65.00
2018-09-15T06:13:32.947Z,64.50
2018-09-15T06:14:04.932Z,64.40
2018-09-15T06:14:36.755Z,64.20
2018-09-15T06:15:08.531Z,64.50
2018-09-15T06:15:40.374Z,65.20
2018-09-15T06:16:12.233Z,64.40
2018-09-15T06:16:44.048Z,64.50
2018-09-15T06:17:15.966Z,64.50
2018-09-15T06:17:47.761Z,64.50
2018-09-15T06:18:19.674Z,64.10
2018-09-15T06:18:51.525Z,64.40
2018-09-15T06:19:23.404Z,64.70
2018-09-15T06:19:55.234Z,64.70
2018-09-15T06:20:27.033Z,64.70
2018-09-15T06:20:58.868Z,64.40
2018-09-15T06:21:30.657Z,64.60
2018-09-15T06:22:02.453Z,64.20
2018-09-15T06:22:34.263Z,64.00
2018-09-15T06:23:06.149Z,64.50
2018-09-15T06:23:37.959Z,64.50
2018-09-15T06:24:09.786Z,64.60
2018-09-15T06:24:41.709Z,64.70
2018-09-15T06:25:13.588Z,64.70
2018-09-15T06:25:45.432Z,64.30
2018-09-15T06:26:17.362Z,64.50
2018-09-15T06:26:49.292Z,64.20
2018-09-15T06:27:21.199Z,64.50
2018-09-15T06:27:53.041Z,64.50
2018-09-15T06:28:24.922Z,64.20
2018-09-15T06:28:56.803Z,64.90
2018-09-15T06:29:28.762Z,64.20
2018-09-15T06:30:00.943Z,65.20
2018-09-15T06:30:32.822Z,64.40
2018-09-15T06:31:04.758Z,65.00
2018-09-15T06:31:36.961Z,64.50
2018-09-15T06:32:08.826Z,64.50
2018-09-15T06:32:40.667Z,64.40
2018-09-15T06:33:12.476Z,64.50
2018-09-15T06:33:44.482Z,64.60
2018-09-15T06:34:16.712Z,64.60
2018-09-15T06:34:48.772Z,65.10
2018-09-15T06:35:20.569Z,64.50
2018-09-15T06:35:52.453Z,64.40
2018-09-15T06:36:24.294Z,64.30
2018-09-15T06:36:56.344Z,64.40
2018-09-15T06:37:28.155Z,64.30
2018-09-15T06:37:59.961Z,64.60
2018-09-15T06:38:31.765Z,64.30
2018-09-15T06:39:03.596Z,64.60
2018-09-15T06:39:35.521Z,64.50
2018-09-15T06:40:07.319Z,64.60
2018-09-15T06:40:39.175Z,64.20
2018-09-15T06:41:11.241Z,64.40
2018-09-15T06:41:43.112Z,64.90
2018-09-15T06:42:15.011Z,64.50
2018-09-15T06:42:46.955Z,64.30
2018-09-15T06:43:18.824Z,64.50
2018-09-15T06:43:50.631Z,64.50
2018-09-15T06:44:22.524Z,64.60
2018-09-15T06:44:54.532Z,64.40
2018-09-15T06:45:26.569Z,64.50
2018-09-15T06:45:58.498Z,64.30
2018-09-15T06:46:30.380Z,64.40
2018-09-15T06:47:02.300Z,64.50
2018-09-15T06:47:34.234Z,64.50
2018-09-15T06:48:06.095Z,64.60
2018-09-15T06:48:37.908Z,64.50
2018-09-15T06:49:09.736Z,64.40
2018-09-15T06:49:41.565Z,64.60
2018-09-15T06:50:13.476Z,64.50
2018-09-15T06:50:45.392Z,64.60